createdAt,value
2018-08-14T00:00:21.680Z,74.51
2018-08-14T00:01:21.653Z,67.12
2018-08-14T00:02:21.606Z,53.89
2018-08-14T00:03:21.585Z,49.45
2018-08-14T00:04:21.549Z,48.40
2018-08-14T00:05:21.520Z,47.44
2018-08-14T00:06:21.507Z,50.60
2018-08-14T00:07:21.450Z,49.93
2018-08-14T00:08:21.431Z,53.09
2018-08-14T00:09:21.398Z,48.49
2018-08-14T00:10:21.371Z,49.45
2018-08-14T00:11:21.328Z,62.96
2018-08-14T00:12:21.274Z,61.34
2018-08-14T00:13:21.244Z,52.40
2018-08-14T00:14:21.219Z,51.54
2018-08-14T00:15:21.187Z,41.57
2018-08-14T00:16:21.160Z,24.81
2018-08-14T00:17:21.125Z,45.59
2018-08-14T00:18:21.100Z,48.28
2018-08-14T00:19:21.066Z,36.00
2018-08-14T00:20:21.027Z,21.06
2018-08-14T00:21:20.993Z,13.12
2018-08-14T00:22:20.945Z,28.44
2018-08-14T00:23:20.919Z,20.49
2018-08-14T00:24:20.874Z,13.49
2018-08-14T00:25:20.837Z,7.46
2018-08-14T00:26:20.810Z,9.86
2018-08-14T00:27:20.801Z,17.61
2018-08-14T00:28:20.744Z,16.18
2018-08-14T00:29:20.713Z,15.22
2018-08-14T00:30:20.684Z,21.73
2018-08-14T00:31:20.642Z,15.80
2018-08-14T00:32:20.625Z,17.52
2018-08-14T00:33:20.579Z,13.21
2018-08-14T00:34:20.554Z,14.16
2018-08-14T00:35:20.524Z,2.77
2018-08-14T00:36:20.476Z,3.16
2018-08-14T00:37:20.458Z,12.25
2018-08-14T00:38:20.412Z,1.72
2018-08-14T00:39:20.393Z,3.25
2018-08-14T00:40:20.337Z,15.79
2018-08-14T00:41:20.303Z,8.61
2018-08-14T00:42:20.270Z,6.12
2018-08-14T00:43:20.247Z,1.43
2018-08-14T00:44:20.218Z,0.00
2018-08-14T00:45:20.189Z,0.00
2018-08-14T00:46:20.132Z,0.00
2018-08-14T00:47:20.113Z,0.00
2018-08-14T00:48:20.073Z,0.00
2018-08-14T00:49:20.046Z,0.00
2018-08-14T00:50:20.009Z,0.00
2018-08-14T00:51:19.962Z,0.00
2018-08-14T00:52:19.944Z,0.00
2018-08-14T00:53:19.906Z,0.00
2018-08-14T00:54:19.898Z,0.00
2018-08-14T00:55:19.839Z,0.00
2018-08-14T00:56:19.797Z,0.00
2018-08-14T00:57:19.764Z,0.00
2018-08-14T00:58:19.735Z,0.00
2018-08-14T00:59:19.687Z,0.00
2018-08-14T01:00:19.673Z,0.00
2018-08-14T01:01:19.627Z,0.00
2018-08-14T01:02:19.612Z,0.00
2018-08-14T01:03:19.563Z,0.00
2018-08-14T01:04:19.533Z,0.00
2018-08-14T01:05:19.505Z,0.00
2018-08-14T01:06:19.453Z,0.00
2018-08-14T01:07:19.440Z,0.00
2018-08-14T01:08:19.401Z,0.00
2018-08-14T01:09:19.347Z,0.00
2018-08-14T01:10:19.323Z,0.00
2018-08-14T01:11:19.305Z,0.00
2018-08-14T01:12:19.262Z,0.00
2018-08-14T01:13:40.220Z,0.00
2018-08-14T01:14:19.192Z,0.00
2018-08-14T01:15:19.140Z,0.00
2018-08-14T01:16:19.111Z,0.00
2018-08-14T01:17:19.099Z,0.00
2018-08-14T01:18:19.074Z,0.00
2018-08-14T01:19:19.019Z,0.00
2018-08-14T01:20:18.988Z,0.00
2018-08-14T01:21:18.946Z,0.00
2018-08-14T01:22:18.920Z,0.00
2018-08-14T01:23:46.632Z,0.00
2018-08-14T01:24:18.879Z,0.00
2018-08-14T01:25:18.822Z,0.00
2018-08-14T01:26:18.777Z,0.00
2018-08-14T01:27:18.763Z,0.00
2018-08-14T01:28:18.706Z,0.00
2018-08-14T01:29:18.660Z,0.00
2018-08-14T01:30:18.633Z,0.00
2018-08-14T01:31:18.597Z,0.00
2018-08-14T01:32:18.587Z,0.00
2018-08-14T01:33:18.550Z,0.00
2018-08-14T01:34:18.502Z,0.00
2018-08-14T01:35:18.465Z,0.00
2018-08-14T01:36:18.439Z,0.00
2018-08-14T01:37:18.399Z,0.00
2018-08-14T01:38:18.356Z,0.00
2018-08-14T01:39:18.353Z,0.00
2018-08-14T01:40:18.304Z,0.00
2018-08-14T01:41:18.281Z,0.00
2018-08-14T01:42:18.232Z,0.00
2018-08-14T01:43:18.189Z,0.00
2018-08-14T01:44:18.178Z,0.00
2018-08-14T01:45:18.118Z,0.00
2018-08-14T01:46:18.093Z,0.00
2018-08-14T01:47:18.090Z,0.00
2018-08-14T01:48:18.066Z,0.00
2018-08-14T01:49:17.998Z,0.00
2018-08-14T01:50:17.948Z,0.00
2018-08-14T01:51:17.915Z,0.00
2018-08-14T01:52:17.878Z,0.00
2018-08-14T01:53:17.827Z,0.00
2018-08-14T01:54:17.823Z,0.00
2018-08-14T01:55:17.779Z,0.00
2018-08-14T01:56:17.823Z,0.00
2018-08-14T01:57:17.717Z,0.00
2018-08-14T01:58:17.653Z,0.00
2018-08-14T01:59:17.632Z,0.00
2018-08-14T02:00:17.614Z,0.00
2018-08-14T02:01:17.552Z,0.00
2018-08-14T02:02:17.530Z,0.00
2018-08-14T02:03:17.484Z,0.00
2018-08-14T02:04:17.468Z,0.00
2018-08-14T02:05:17.439Z,0.00
2018-08-14T02:06:17.404Z,0.00
2018-08-14T02:07:17.344Z,0.00
2018-08-14T02:08:18.053Z,0.00
2018-08-14T02:09:17.302Z,0.00
2018-08-14T02:10:17.274Z,0.00
2018-08-14T02:11:17.203Z,0.00
2018-08-14T02:12:17.181Z,0.00
2018-08-14T02:13:17.151Z,0.00
2018-08-14T02:14:17.119Z,0.00
2018-08-14T02:15:17.075Z,0.00
2018-08-14T02:16:17.045Z,0.00
2018-08-14T02:17:17.016Z,0.00
2018-08-14T02:18:16.979Z,0.00
2018-08-14T02:19:16.940Z,0.00
2018-08-14T02:20:16.884Z,0.00
2018-08-14T02:21:16.868Z,0.00
2018-08-14T02:22:16.837Z,0.00
2018-08-14T02:23:16.792Z,0.00
2018-08-14T02:24:16.751Z,0.00
2018-08-14T02:25:16.718Z,0.00
2018-08-14T02:26:16.699Z,0.00
2018-08-14T02:27:16.731Z,0.00
2018-08-14T02:28:16.612Z,0.00
2018-08-14T02:29:16.591Z,0.00
2018-08-14T02:30:16.556Z,0.00
2018-08-14T02:31:16.520Z,0.00
2018-08-14T02:32:16.494Z,0.00
2018-08-14T02:33:16.443Z,0.00
2018-08-14T02:34:16.404Z,0.00
2018-08-14T02:35:16.383Z,0.00
2018-08-14T02:36:16.328Z,0.00
2018-08-14T02:37:16.298Z,0.00
2018-08-14T02:38:16.267Z,0.00
2018-08-14T02:39:16.231Z,0.00
2018-08-14T02:40:16.189Z,0.00
2018-08-14T02:41:16.143Z,0.00
2018-08-14T02:42:16.131Z,0.00
2018-08-14T02:43:16.095Z,0.00
2018-08-14T02:44:16.041Z,0.00
2018-08-14T02:45:16.015Z,0.00
2018-08-14T02:46:15.989Z,0.00
2018-08-14T02:47:15.943Z,0.00
2018-08-14T02:48:15.913Z,0.00
2018-08-14T02:49:15.875Z,0.00
2018-08-14T02:50:15.844Z,0.00
2018-08-14T02:51:15.797Z,0.00
2018-08-14T02:52:15.753Z,0.00
2018-08-14T02:53:15.719Z,0.00
2018-08-14T02:54:15.705Z,0.00
2018-08-14T02:55:15.682Z,0.00
2018-08-14T02:56:15.629Z,0.00
2018-08-14T02:57:15.587Z,0.00
2018-08-14T02:58:15.554Z,0.00
2018-08-14T02:59:15.544Z,0.00
2018-08-14T03:00:15.477Z,0.00
2018-08-14T03:01:15.442Z,0.00
2018-08-14T03:02:15.411Z,0.00
2018-08-14T03:03:15.382Z,0.00
2018-08-14T03:04:15.341Z,0.00
2018-08-14T03:05:15.345Z,0.00
2018-08-14T03:06:15.280Z,0.00
2018-08-14T03:07:15.246Z,0.00
2018-08-14T03:08:15.215Z,0.00
2018-08-14T03:09:15.163Z,0.00
2018-08-14T03:10:15.169Z,0.00
2018-08-14T03:11:15.150Z,0.00
2018-08-14T03:12:15.056Z,0.00
2018-08-14T03:13:15.020Z,0.00
2018-08-14T03:14:14.993Z,0.00
2018-08-14T03:15:14.963Z,0.00
2018-08-14T03:16:14.937Z,0.00
2018-08-14T03:17:14.890Z,0.00
2018-08-14T03:18:14.862Z,0.00
2018-08-14T03:19:14.808Z,0.00
2018-08-14T03:20:14.772Z,0.00
2018-08-14T03:21:14.743Z,0.00
2018-08-14T03:22:14.704Z,0.00
2018-08-14T03:23:14.669Z,0.00
2018-08-14T03:24:14.659Z,0.00
2018-08-14T03:25:14.640Z,0.00
2018-08-14T03:26:14.593Z,0.00
2018-08-14T03:27:14.548Z,0.00
2018-08-14T03:28:14.493Z,0.00
2018-08-14T03:29:14.469Z,0.00
2018-08-14T03:30:14.417Z,0.00
2018-08-14T03:31:14.387Z,0.00
2018-08-14T03:32:14.476Z,0.00
2018-08-14T03:33:14.323Z,0.00
2018-08-14T03:34:14.384Z,0.00
2018-08-14T03:35:14.233Z,0.00
2018-08-14T03:36:14.204Z,0.00
2018-08-14T03:37:14.184Z,0.00
2018-08-14T03:38:14.149Z,0.00
2018-08-14T03:39:14.119Z,0.00
2018-08-14T03:40:14.064Z,0.00
2018-08-14T03:41:14.042Z,0.00
2018-08-14T03:42:14.008Z,0.00
2018-08-14T03:43:13.957Z,0.00
2018-08-14T03:44:13.958Z,0.00
2018-08-14T03:45:13.900Z,0.00
2018-08-14T03:46:13.870Z,0.00
2018-08-14T03:47:13.815Z,0.00
2018-08-14T03:48:13.770Z,0.00
2018-08-14T03:49:13.741Z,0.00
2018-08-14T03:50:13.718Z,0.00
2018-08-14T03:51:13.678Z,0.00
2018-08-14T03:52:13.651Z,0.00
2018-08-14T03:53:13.611Z,0.00
2018-08-14T03:54:13.564Z,0.00
2018-08-14T03:55:13.535Z,0.00
2018-08-14T03:56:13.544Z,0.00
2018-08-14T03:57:13.481Z,0.00
2018-08-14T03:58:13.466Z,0.00
2018-08-14T03:59:13.459Z,0.00
2018-08-14T04:00:13.347Z,0.00
2018-08-14T04:01:13.329Z,0.00
2018-08-14T04:02:13.278Z,0.00
2018-08-14T04:03:13.270Z,0.00
2018-08-14T04:04:13.221Z,0.00
2018-08-14T04:05:13.191Z,0.00
2018-08-14T04:06:13.197Z,0.00
2018-08-14T04:07:13.153Z,0.00
2018-08-14T04:08:13.077Z,0.00
2018-08-14T04:09:13.039Z,0.00
2018-08-14T04:10:12.997Z,0.00
2018-08-14T04:11:12.978Z,0.00
2018-08-14T04:12:12.928Z,0.00
2018-08-14T04:13:12.891Z,0.00
2018-08-14T04:14:12.864Z,0.00
2018-08-14T04:15:12.822Z,0.00
2018-08-14T04:16:12.805Z,0.00
2018-08-14T04:17:12.761Z,0.00
2018-08-14T04:18:12.724Z,0.00
2018-08-14T04:19:12.672Z,0.00
2018-08-14T04:20:12.652Z,0.00
2018-08-14T04:21:12.605Z,0.00
2018-08-14T04:22:12.567Z,0.00
2018-08-14T04:23:12.545Z,0.00
2018-08-14T04:24:12.512Z,0.00
2018-08-14T04:25:12.508Z,0.00
2018-08-14T04:26:12.452Z,0.00
2018-08-14T04:27:12.401Z,0.00
2018-08-14T04:28:12.392Z,0.00
2018-08-14T04:29:12.350Z,0.00
2018-08-14T04:30:12.290Z,0.00
2018-08-14T04:31:12.271Z,0.00
2018-08-14T04:32:12.234Z,0.00
2018-08-14T04:33:12.212Z,0.00
2018-08-14T04:34:12.169Z,0.00
2018-08-14T04:35:12.121Z,0.00
2018-08-14T04:36:12.079Z,0.00
2018-08-14T04:37:12.069Z,0.00
2018-08-14T04:38:12.022Z,0.85
2018-08-14T04:39:11.968Z,2.00
2018-08-14T04:40:11.949Z,0.48
2018-08-14T04:41:11.904Z,0.85
2018-08-14T04:42:11.896Z,0.00
2018-08-14T04:43:11.839Z,0.00
2018-08-14T04:44:11.803Z,0.00
2018-08-14T04:45:11.763Z,0.00
2018-08-14T04:46:11.804Z,0.00
2018-08-14T04:47:11.724Z,1.15
2018-08-14T04:48:11.672Z,4.30
2018-08-14T04:49:11.619Z,3.73
2018-08-14T04:50:11.605Z,1.81
2018-08-14T04:51:11.585Z,2.96
2018-08-14T04:52:11.576Z,6.60
2018-08-14T04:53:11.522Z,6.50
2018-08-14T04:54:11.455Z,4.59
2018-08-14T04:55:11.500Z,7.17
2018-08-14T04:56:11.384Z,12.72
2018-08-14T04:57:11.393Z,15.20
2018-08-14T04:58:11.305Z,14.92
2018-08-14T04:59:11.290Z,9.94
2018-08-14T05:00:11.255Z,8.42
2018-08-14T05:01:11.326Z,11.29
2018-08-14T05:02:11.192Z,14.06
2018-08-14T05:03:11.242Z,14.54
2018-08-14T05:04:11.127Z,13.29
2018-08-14T05:05:11.088Z,13.48
2018-08-14T05:06:11.064Z,13.20
2018-08-14T05:07:11.017Z,9.95
2018-08-14T05:08:11.016Z,13.49
2018-08-14T05:09:10.967Z,16.08
2018-08-14T05:10:10.965Z,11.77
2018-08-14T05:11:10.920Z,11.29
2018-08-14T05:12:10.833Z,12.63
2018-08-14T05:13:10.822Z,14.35
2018-08-14T05:14:10.766Z,15.12
2018-08-14T05:15:10.797Z,18.29
2018-08-14T05:16:10.733Z,23.84
2018-08-14T05:17:10.691Z,22.50
2018-08-14T05:18:10.693Z,24.70
2018-08-14T05:19:10.646Z,26.42
2018-08-14T05:20:10.597Z,32.07
2018-08-14T05:21:10.517Z,33.61
2018-08-14T05:22:10.504Z,35.81
2018-08-14T05:23:10.446Z,36.40
2018-08-14T05:24:10.412Z,41.00
2018-08-14T05:25:10.379Z,40.81
2018-08-14T05:26:10.359Z,38.22
2018-08-14T05:27:10.321Z,39.75
2018-08-14T05:28:10.276Z,35.92
2018-08-14T05:29:10.232Z,42.44
2018-08-14T05:30:10.225Z,41.77
2018-08-14T05:31:10.179Z,43.59
2018-08-14T05:32:10.143Z,49.81
2018-08-14T05:33:10.111Z,45.69
2018-08-14T05:34:10.067Z,50.12
2018-08-14T05:35:10.051Z,52.42
2018-08-14T05:36:10.020Z,53.00
2018-08-14T05:37:09.981Z,61.53
2018-08-14T05:38:09.946Z,56.64
2018-08-14T05:39:09.919Z,63.45
2018-08-14T05:40:09.881Z,69.33
2018-08-14T05:41:09.835Z,80.87
2018-08-14T05:42:09.811Z,85.77
2018-08-14T05:43:09.776Z,80.97
2018-08-14T05:44:09.751Z,92.96
2018-08-14T05:45:09.721Z,95.75
2018-08-14T05:46:09.680Z,99.99
2018-08-14T05:47:09.651Z,96.75
2018-08-14T05:48:09.604Z,99.99
2018-08-14T05:49:09.585Z,99.99
2018-08-14T05:50:09.554Z,99.99
2018-08-14T05:51:09.513Z,99.99
2018-08-14T05:52:09.466Z,99.99
2018-08-14T05:53:09.449Z,99.99
2018-08-14T05:54:09.405Z,99.99
2018-08-14T05:55:09.387Z,99.99
2018-08-14T05:56:09.350Z,99.99
2018-08-14T05:57:09.311Z,99.99
2018-08-14T05:58:09.279Z,99.99
2018-08-14T05:59:09.237Z,99.99
2018-08-14T06:00:09.219Z,99.99
2018-08-14T06:01:09.193Z,99.99
2018-08-14T06:02:09.149Z,99.99
2018-08-14T06:03:09.125Z,99.99
2018-08-14T06:04:09.085Z,99.99
2018-08-14T06:05:09.056Z,99.99
2018-08-14T06:06:09.022Z,99.99
2018-08-14T06:07:08.991Z,99.99
2018-08-14T06:08:08.954Z,99.99
2018-08-14T06:09:08.922Z,99.99
2018-08-14T06:10:08.906Z,99.99
2018-08-14T06:11:08.862Z,99.99
2018-08-14T06:12:08.830Z,99.99
2018-08-14T06:13:08.798Z,99.99
2018-08-14T06:14:08.739Z,99.99
2018-08-14T06:15:08.713Z,99.99
2018-08-14T06:16:08.711Z,99.99
2018-08-14T06:17:08.659Z,99.99
2018-08-14T06:18:08.628Z,99.99
2018-08-14T06:19:08.603Z,99.99
2018-08-14T06:20:08.574Z,99.99
2018-08-14T06:21:08.542Z,99.99
2018-08-14T06:22:08.481Z,99.99
2018-08-14T06:23:08.468Z,99.99
2018-08-14T06:24:08.427Z,99.99
2018-08-14T06:25:08.456Z,99.99
2018-08-14T06:26:08.366Z,99.99
2018-08-14T06:27:08.329Z,99.99
2018-08-14T06:28:08.307Z,99.99
2018-08-14T06:29:08.264Z,99.99
2018-08-14T06:30:08.247Z,99.99
2018-08-14T06:31:08.239Z,99.99
2018-08-14T06:32:08.184Z,99.99
2018-08-14T06:33:08.132Z,99.99
2018-08-14T06:34:08.186Z,99.99
2018-08-14T06:35:08.070Z,99.99
2018-08-14T06:36:08.085Z,99.99
2018-08-14T06:37:08.016Z,99.99
2018-08-14T06:38:07.976Z,99.99
2018-08-14T06:39:07.964Z,99.99
2018-08-14T06:40:07.927Z,99.99
2018-08-14T06:41:07.914Z,99.99
2018-08-14T06:42:07.858Z,99.99
2018-08-14T06:43:07.829Z,99.99
2018-08-14T06:44:07.828Z,99.99
2018-08-14T06:45:07.785Z,99.99
2018-08-14T06:46:07.746Z,99.99
2018-08-14T06:47:07.703Z,99.99
2018-08-14T06:48:07.662Z,99.99
2018-08-14T06:49:07.693Z,99.99
2018-08-14T06:50:07.613Z,99.99
2018-08-14T06:51:07.569Z,99.99
2018-08-14T06:52:07.548Z,99.99
2018-08-14T06:53:07.495Z,99.99
2018-08-14T06:54:07.494Z,99.99
2018-08-14T06:55:07.454Z,99.99
2018-08-14T06:56:07.438Z,99.99
2018-08-14T06:57:07.383Z,99.99
2018-08-14T06:58:07.356Z,99.99
2018-08-14T06:59:07.321Z,99.99
2018-08-14T07:00:07.288Z,99.99
2018-08-14T07:01:07.267Z,99.99
2018-08-14T07:02:07.250Z,99.99
2018-08-14T07:03:07.191Z,95.83
2018-08-14T07:04:07.180Z,90.71
2018-08-14T07:05:07.117Z,94.14
2018-08-14T07:06:07.115Z,87.91
2018-08-14T07:07:07.096Z,85.25
2018-08-14T07:08:07.095Z,84.61
2018-08-14T07:09:07.033Z,80.41
2018-08-14T07:10:06.973Z,82.48
2018-08-14T07:11:06.979Z,77.63
2018-08-14T07:12:06.945Z,75.38
2018-08-14T07:13:06.902Z,73.48
2018-08-14T07:14:06.880Z,70.64
2018-08-14T07:15:06.846Z,66.95
2018-08-14T07:16:06.808Z,66.50
2018-08-14T07:17:06.783Z,68.44
2018-08-14T07:18:06.768Z,67.63
2018-08-14T07:19:06.748Z,66.72
2018-08-14T07:20:06.727Z,66.92
2018-08-14T07:21:06.672Z,68.41
2018-08-14T07:22:06.680Z,67.24
2018-08-14T07:23:06.625Z,69.73
2018-08-14T07:24:06.616Z,71.44
2018-08-14T07:25:06.601Z,72.50
2018-08-14T07:26:06.554Z,72.62
2018-08-14T07:27:06.568Z,77.38
2018-08-14T07:28:06.545Z,76.59
2018-08-14T07:29:06.483Z,73.37
2018-08-14T07:30:06.466Z,71.62
2018-08-14T07:31:06.445Z,74.04
2018-08-14T07:32:06.435Z,77.86
2018-08-14T07:33:06.380Z,80.86
2018-08-14T07:34:06.373Z,83.39
2018-08-14T07:35:06.327Z,84.93
2018-08-14T07:36:06.331Z,84.30
2018-08-14T07:37:06.348Z,83.72
2018-08-14T07:38:06.308Z,84.74
2018-08-14T07:39:06.260Z,86.66
2018-08-14T07:40:06.247Z,92.16
2018-08-14T07:41:06.284Z,90.19
2018-08-14T07:42:06.181Z,90.34
2018-08-14T07:43:06.136Z,92.46
2018-08-14T07:44:06.107Z,92.65
2018-08-14T07:45:06.096Z,90.96
2018-08-14T07:46:06.052Z,94.63
2018-08-14T07:47:06.026Z,90.77
2018-08-14T07:48:06.027Z,89.42
2018-08-14T07:49:05.964Z,88.93
2018-08-14T07:50:05.961Z,87.10
2018-08-14T07:51:05.923Z,86.28
2018-08-14T07:52:05.906Z,84.30
2018-08-14T07:53:05.926Z,79.60
2018-08-14T07:54:05.830Z,79.75
2018-08-14T07:55:05.842Z,81.98
2018-08-14T07:56:05.829Z,81.11
2018-08-14T07:57:05.777Z,82.65
2018-08-14T07:58:05.744Z,83.33
2018-08-14T07:59:05.701Z,84.00
2018-08-14T08:00:05.693Z,85.26
2018-08-14T08:01:05.663Z,84.25
2018-08-14T08:02:05.636Z,84.06
2018-08-14T08:03:05.604Z,84.06
2018-08-14T08:04:05.583Z,83.58
2018-08-14T08:05:05.553Z,83.67
2018-08-14T08:06:05.531Z,84.16
2018-08-14T08:07:05.492Z,79.49
2018-08-14T08:08:05.601Z,76.45
2018-08-14T08:09:05.425Z,76.16
2018-08-14T08:10:05.391Z,71.76
2018-08-14T08:11:05.395Z,69.38
2018-08-14T08:12:05.367Z,64.65
2018-08-14T08:13:05.327Z,62.71
2018-08-14T08:14:05.300Z,59.66
2018-08-14T08:15:05.281Z,58.42
2018-08-14T08:16:05.226Z,56.92
2018-08-14T08:17:05.210Z,56.96
2018-08-14T08:18:05.191Z,59.89
2018-08-14T08:19:05.171Z,61.94
2018-08-14T08:20:05.137Z,64.62
2018-08-14T08:21:05.153Z,68.63
2018-08-14T08:22:05.164Z,71.30
2018-08-14T08:23:05.064Z,69.63
2018-08-14T08:24:05.032Z,66.34
2018-08-14T08:25:05.007Z,67.95
2018-08-14T08:26:04.988Z,65.20
2018-08-14T08:27:04.997Z,64.53
2018-08-14T08:28:04.942Z,66.02
2018-08-14T08:29:04.908Z,64.98
2018-08-14T08:30:04.911Z,66.11
2018-08-14T08:31:04.864Z,65.72
2018-08-14T08:32:04.854Z,66.82
2018-08-14T08:33:04.828Z,68.91
2018-08-14T08:34:04.829Z,70.78
2018-08-14T08:35:04.786Z,73.07
2018-08-14T08:36:04.767Z,75.26
2018-08-14T08:37:04.730Z,77.83
2018-08-14T08:38:04.711Z,79.95
2018-08-14T08:39:04.689Z,80.68
2018-08-14T08:40:04.659Z,81.45
2018-08-14T08:41:04.636Z,83.39
2018-08-14T08:42:04.660Z,83.53
2018-08-14T08:43:04.603Z,84.21
2018-08-14T08:44:04.605Z,86.87
2018-08-14T08:45:04.535Z,87.68
2018-08-14T08:46:04.494Z,89.67
2018-08-14T08:47:04.474Z,88.60
2018-08-14T08:48:04.449Z,89.57
2018-08-14T08:49:04.432Z,90.92
2018-08-14T08:50:04.413Z,90.34
2018-08-14T08:51:04.459Z,90.77
2018-08-14T08:52:04.342Z,90.29
2018-08-14T08:53:04.319Z,89.61
2018-08-14T08:54:04.296Z,88.45
2018-08-14T08:55:04.291Z,92.46
2018-08-14T08:56:04.237Z,86.76
2018-08-14T08:57:04.223Z,86.76
2018-08-14T08:58:04.203Z,84.83
2018-08-14T08:59:04.160Z,87.34
2018-08-14T09:00:04.135Z,86.18
2018-08-14T09:01:04.117Z,88.98
2018-08-14T09:02:04.111Z,90.43
2018-08-14T09:03:04.042Z,88.31
2018-08-14T09:04:04.029Z,89.71
2018-08-14T09:05:04.020Z,90.67
2018-08-14T09:06:03.955Z,90.77
2018-08-14T09:07:03.964Z,94.34
2018-08-14T09:08:03.906Z,92.50
2018-08-14T09:09:03.887Z,92.41
2018-08-14T09:10:03.865Z,92.50
2018-08-14T09:11:03.825Z,91.06
2018-08-14T09:12:03.804Z,91.06
2018-08-14T09:13:03.817Z,92.84
2018-08-14T09:14:03.749Z,90.23
2018-08-14T09:15:03.780Z,86.90
2018-08-14T09:16:03.685Z,85.45
2018-08-14T09:17:03.655Z,85.98
2018-08-14T09:18:03.643Z,82.60
2018-08-14T09:19:03.683Z,78.71
2018-08-14T09:20:03.589Z,75.07
2018-08-14T09:21:03.546Z,74.49
2018-08-14T09:22:03.527Z,74.01
2018-08-14T09:23:03.488Z,73.57
2018-08-14T09:24:03.473Z,72.21
2018-08-14T09:25:03.459Z,73.18
2018-08-14T09:26:03.408Z,72.02
2018-08-14T09:27:03.381Z,73.37
2018-08-14T09:28:03.397Z,71.04
2018-08-14T09:29:03.346Z,72.69
2018-08-14T09:30:03.331Z,70.70
2018-08-14T09:31:03.266Z,70.05
2018-08-14T09:32:03.240Z,69.92
2018-08-14T09:33:03.228Z,70.08
2018-08-14T09:34:03.177Z,70.95
2018-08-14T09:35:03.203Z,71.11
2018-08-14T09:36:03.180Z,72.66
2018-08-14T09:37:03.168Z,71.69
2018-08-14T09:38:03.074Z,73.20
2018-08-14T09:39:03.046Z,73.68
2018-08-14T09:40:03.035Z,75.87
2018-08-14T09:41:03.010Z,76.90
2018-08-14T09:42:02.959Z,77.00
2018-08-14T09:43:02.954Z,77.86
2018-08-14T09:44:02.928Z,78.64
2018-08-14T09:45:02.903Z,77.71
2018-08-14T09:46:02.873Z,75.20
2018-08-14T09:47:02.889Z,75.52
2018-08-14T09:48:02.806Z,77.11
2018-08-14T09:49:02.785Z,73.63
2018-08-14T09:50:02.745Z,73.82
2018-08-14T09:51:02.717Z,73.01
2018-08-14T09:52:02.687Z,73.68
2018-08-14T09:53:02.653Z,74.07
2018-08-14T09:54:02.655Z,74.71
2018-08-14T09:55:02.598Z,76.06
2018-08-14T09:56:02.597Z,77.03
2018-08-14T09:57:02.541Z,75.71
2018-08-14T09:58:02.537Z,74.85
2018-08-14T09:59:02.485Z,75.68
2018-08-14T10:00:02.458Z,75.00
2018-08-14T10:01:02.461Z,75.10
2018-08-14T10:02:02.407Z,73.97
2018-08-14T10:03:02.389Z,73.20
2018-08-14T10:04:02.360Z,73.20
2018-08-14T10:05:02.335Z,74.85
2018-08-14T10:06:02.322Z,73.24
2018-08-14T10:07:02.282Z,73.10
2018-08-14T10:08:02.256Z,74.75
2018-08-14T10:09:02.246Z,74.46
2018-08-14T10:10:02.209Z,73.84
2018-08-14T10:11:02.195Z,75.26
2018-08-14T10:12:02.164Z,76.32
2018-08-14T10:13:02.131Z,77.83
2018-08-14T10:14:02.089Z,78.50
2018-08-14T10:15:02.081Z,78.02
2018-08-14T10:16:02.032Z,77.48
2018-08-14T10:17:01.990Z,77.76
2018-08-14T10:18:01.974Z,76.70
2018-08-14T10:19:01.961Z,76.61
2018-08-14T10:20:02.005Z,76.70
2018-08-14T10:21:01.915Z,76.22
2018-08-14T10:22:01.859Z,77.67
2018-08-14T10:23:01.831Z,77.92
2018-08-14T10:24:01.804Z,78.54
2018-08-14T10:25:01.771Z,78.54
2018-08-14T10:26:01.761Z,78.83
2018-08-14T10:27:01.712Z,78.83
2018-08-14T10:28:01.688Z,79.31
2018-08-14T10:29:01.661Z,79.22
2018-08-14T10:30:01.631Z,78.59
2018-08-14T10:31:01.616Z,78.31
2018-08-14T10:32:01.583Z,78.79
2018-08-14T10:33:01.551Z,78.50
2018-08-14T10:34:01.533Z,79.95
2018-08-14T10:35:01.491Z,80.72
2018-08-14T10:36:01.477Z,78.56
2018-08-14T10:37:01.463Z,80.10
2018-08-14T10:38:01.411Z,80.62
2018-08-14T10:39:01.381Z,79.17
2018-08-14T10:40:01.393Z,77.48
2018-08-14T10:41:01.323Z,77.28
2018-08-14T10:42:01.301Z,75.54
2018-08-14T10:43:01.269Z,74.71
2018-08-14T10:44:01.244Z,73.39
2018-08-14T10:45:01.210Z,73.39
2018-08-14T10:46:01.197Z,73.10
2018-08-14T10:47:01.163Z,72.30
2018-08-14T10:48:01.142Z,74.13
2018-08-14T10:49:01.101Z,73.07
2018-08-14T10:50:01.087Z,74.13
2018-08-14T10:51:01.055Z,74.23
2018-08-14T10:52:01.016Z,76.12
2018-08-14T10:53:00.978Z,75.06
2018-08-14T10:54:00.982Z,75.45
2018-08-14T10:55:00.940Z,75.74
2018-08-14T10:56:00.928Z,77.34
2018-08-14T10:57:00.886Z,77.92
2018-08-14T10:58:00.890Z,76.76
2018-08-14T10:59:00.830Z,76.95
2018-08-14T11:00:00.804Z,77.53
2018-08-14T11:01:00.791Z,77.59
2018-08-14T11:02:00.739Z,78.75
2018-08-14T11:03:00.755Z,79.14
2018-08-14T11:04:00.681Z,80.00
2018-08-14T11:05:00.706Z,78.46
2018-08-14T11:06:00.636Z,78.56
2018-08-14T11:07:00.620Z,78.46
2018-08-14T11:08:00.571Z,78.36
2018-08-14T11:09:00.540Z,78.31
2018-08-14T11:10:00.520Z,78.21
2018-08-14T11:11:00.478Z,77.83
2018-08-14T11:12:00.447Z,81.24
2018-08-14T11:13:00.436Z,82.35
2018-08-14T11:14:00.397Z,75.39
2018-08-14T11:15:00.373Z,75.78
2018-08-14T11:16:00.365Z,73.88
2018-08-14T11:17:00.306Z,72.42
2018-08-14T11:18:00.280Z,74.21
2018-08-14T11:19:00.300Z,71.34
2018-08-14T11:20:00.230Z,70.11
2018-08-14T11:21:00.200Z,69.24
2018-08-14T11:22:00.171Z,69.47
2018-08-14T11:23:00.148Z,67.92
2018-08-14T11:24:00.121Z,66.85
2018-08-14T11:25:00.092Z,67.11
2018-08-14T11:26:00.052Z,67.50
2018-08-14T11:27:00.031Z,68.43
2018-08-14T11:28:00.032Z,70.95
2018-08-14T11:28:59.973Z,71.20
2018-08-14T11:29:59.954Z,70.34
2018-08-14T11:30:59.933Z,74.07
2018-08-14T11:31:59.906Z,71.91
2018-08-14T11:32:59.870Z,72.88
2018-08-14T11:33:59.842Z,75.16
2018-08-14T11:34:59.808Z,76.70
2018-08-14T11:35:59.776Z,76.28
2018-08-14T11:36:59.761Z,75.99
2018-08-14T11:37:59.740Z,77.05
2018-08-14T11:38:59.699Z,77.25
2018-08-14T11:39:59.669Z,76.76
2018-08-14T11:40:59.645Z,77.83
2018-08-14T11:41:59.625Z,80.14
2018-08-14T11:42:59.608Z,76.86
2018-08-14T11:43:59.565Z,77.63
2018-08-14T11:44:59.567Z,77.73
2018-08-14T11:45:59.523Z,78.02
2018-08-14T11:46:59.480Z,78.50
2018-08-14T11:47:59.469Z,78.31
2018-08-14T11:48:59.425Z,77.92
2018-08-14T11:49:59.402Z,77.50
2018-08-14T11:50:59.439Z,78.27
2018-08-14T11:51:59.349Z,78.36
2018-08-14T11:52:59.314Z,79.24
2018-08-14T11:53:59.300Z,80.58
2018-08-14T11:54:59.251Z,79.33
2018-08-14T11:55:59.225Z,79.81
2018-08-14T11:56:59.202Z,80.49
2018-08-14T11:57:59.170Z,81.45
2018-08-14T11:58:59.143Z,80.00
2018-08-14T11:59:59.130Z,79.72
2018-08-14T12:00:59.080Z,80.62
2018-08-14T12:01:59.065Z,78.31
2018-08-14T12:02:59.037Z,80.14
2018-08-14T12:03:59.005Z,77.44
2018-08-14T12:04:59.019Z,77.92
2018-08-14T12:05:58.947Z,77.34
2018-08-14T12:06:58.976Z,76.76
2018-08-14T12:07:58.880Z,77.38
2018-08-14T12:08:58.859Z,79.66
2018-08-14T12:09:58.842Z,84.68
2018-08-14T12:10:58.961Z,78.69
2018-08-14T12:11:58.782Z,78.50
2018-08-14T12:12:58.826Z,78.59
2018-08-14T12:13:58.716Z,79.56
2018-08-14T12:14:58.687Z,79.95
2018-08-14T12:15:58.671Z,80.24
2018-08-14T12:16:58.633Z,79.95
2018-08-14T12:17:58.604Z,81.01
2018-08-14T12:18:58.583Z,79.66
2018-08-14T12:19:58.573Z,79.75
2018-08-14T12:20:58.513Z,79.37
2018-08-14T12:21:58.497Z,78.41
2018-08-14T12:22:58.454Z,79.31
2018-08-14T12:23:58.427Z,76.03
2018-08-14T12:24:58.408Z,76.90
2018-08-14T12:25:58.400Z,76.74
2018-08-14T12:26:58.335Z,76.74
2018-08-14T12:27:58.334Z,74.04
2018-08-14T12:28:58.281Z,74.07
2018-08-14T12:29:58.263Z,72.52
2018-08-14T12:30:58.219Z,72.36
2018-08-14T12:31:58.188Z,71.50
2018-08-14T12:32:58.189Z,71.56
2018-08-14T12:33:58.140Z,71.98
2018-08-14T12:34:58.158Z,71.17
2018-08-14T12:35:58.089Z,71.46
2018-08-14T12:36:58.082Z,70.68
2018-08-14T12:37:58.043Z,71.17
2018-08-14T12:38:58.007Z,72.36
2018-08-14T12:39:57.970Z,73.14
2018-08-14T12:40:57.938Z,73.24
2018-08-14T12:41:57.920Z,70.92
2018-08-14T12:42:57.889Z,71.59
2018-08-14T12:43:57.877Z,70.62
2018-08-14T12:44:57.837Z,70.14
2018-08-14T12:45:57.789Z,69.66
2018-08-14T12:46:57.792Z,70.62
2018-08-14T12:47:57.760Z,69.85
2018-08-14T12:48:57.709Z,71.40
2018-08-14T12:49:57.755Z,72.17
2018-08-14T12:50:57.665Z,70.34
2018-08-14T12:51:57.631Z,70.82
2018-08-14T12:52:57.619Z,71.36
2018-08-14T12:53:57.577Z,72.42
2018-08-14T12:54:57.571Z,73.16
2018-08-14T12:55:57.521Z,72.39
2018-08-14T12:56:57.558Z,76.16
2018-08-14T12:57:57.496Z,73.80
2018-08-14T12:58:57.434Z,74.87
2018-08-14T12:59:57.412Z,76.51
2018-08-14T13:00:57.403Z,75.64